createdAt,value
2022-12-08T00:01:13.175Z,98523.16
2022-12-08T00:03:40.496Z,98513.75
2022-12-08T00:06:31.564Z,98521.97
2022-12-08T00:09:16.496Z,98515.34
2022-12-08T00:11:43.052Z,98516.66
2022-12-08T00:14:09.627Z,98511.72
2022-12-08T00:16:36.286Z,98511.84
2022-12-08T00:19:02.918Z,98509.91
2022-12-08T00:21:29.544Z,98503.38
2022-12-08T00:23:56.617Z,98511.44
2022-12-08T00:26:23.212Z,98506.63
2022-12-08T00:28:50.015Z,98505.31
2022-12-08T00:31:17.491Z,98510.25
2022-12-08T00:33:44.419Z,98511.22
2022-12-08T00:36:13.767Z,98507.47
2022-12-08T00:38:41.034Z,98503.41
2022-12-08T00:41:13.276Z,98504.81
2022-12-08T00:43:39.914Z,98498.44
2022-12-08T00:46:06.735Z,98503.63
2022-12-08T00:48:33.977Z,98500.63
2022-12-08T00:51:00.584Z,98490.72
2022-12-08T00:53:27.244Z,98487.22
2022-12-08T00:55:53.833Z,98485.41
2022-12-08T00:58:20.405Z,98498.44
2022-12-08T01:00:47.066Z,98494.69
2022-12-08T01:03:13.747Z,98489.25
2022-12-08T01:05:40.388Z,98490.84
2022-12-08T01:08:08.427Z,98495.31
2022-12-08T01:10:36.605Z,98496.75
2022-12-08T01:13:04.092Z,98492.88
2022-12-08T01:15:30.668Z,98495.06
2022-12-08T01:17:57.311Z,98496.75
2022-12-08T01:20:24.095Z,98502.78
2022-12-08T01:22:50.688Z,98494.56
2022-12-08T01:25:17.443Z,98494.09
2022-12-08T01:27:43.972Z,98496.50
2022-12-08T01:30:11.012Z,98491.91
2022-12-08T01:32:37.744Z,98493.13
2022-12-08T01:35:04.536Z,98492.53
2022-12-08T01:37:31.139Z,98489.03
2022-12-08T01:39:57.678Z,98495.19
2022-12-08T01:42:25.069Z,98485.66
2022-12-08T01:45:04.918Z,98488.41
2022-12-08T01:47:46.316Z,98487.69
2022-12-08T01:50:13.717Z,98481.06
2022-12-08T01:52:53.379Z,98478.03
2022-12-08T01:55:39.088Z,98470.19
2022-12-08T01:58:13.475Z,98468.50
2022-12-08T02:00:40.017Z,98472.00
2022-12-08T02:03:12.063Z,98466.59
2022-12-08T02:05:40.369Z,98467.03
2022-12-08T02:08:10.272Z,98462.22
2022-12-08T02:10:40.912Z,98457.16
2022-12-08T02:13:10.408Z,98455.97
2022-12-08T02:15:49.877Z,98453.75
2022-12-08T02:18:41.080Z,98455.00
2022-12-08T02:21:14.102Z,98458.38
2022-12-08T02:23:58.959Z,98454.63
2022-12-08T02:26:43.768Z,98443.16
2022-12-08T02:29:46.903Z,98443.06
2022-12-08T02:32:41.789Z,98440.25
2022-12-08T02:35:30.192Z,98448.22
2022-12-08T02:37:59.700Z,98448.91
2022-12-08T02:40:42.481Z,98451.91
2022-12-08T02:43:16.841Z,98443.97
2022-12-08T02:45:51.761Z,98442.41
2022-12-08T02:48:18.391Z,98444.25
2022-12-08T02:50:45.055Z,98441.72
2022-12-08T02:56:00.553Z,98439.94
2022-12-08T02:58:36.789Z,98437.41
2022-12-08T03:01:34.226Z,98429.66
2022-12-08T03:04:07.349Z,98421.72
2022-12-08T03:06:39.689Z,98433.53
2022-12-08T03:09:27.962Z,98428.22
2022-12-08T03:12:29.852Z,98430.19
2022-12-08T03:15:02.297Z,98426.91
2022-12-08T03:17:31.156Z,98424.03
2022-12-08T03:20:04.472Z,98418.59
2022-12-08T03:22:32.832Z,98417.53
2022-12-08T03:25:00.426Z,98420.53
2022-12-08T03:27:29.505Z,98420.06
2022-12-08T03:29:58.088Z,98415.72
2022-12-08T03:32:35.128Z,98416.94
2022-12-08T03:35:06.389Z,98411.50
2022-12-08T03:37:35.576Z,98413.78
2022-12-08T03:40:04.682Z,98411.75
2022-12-08T03:42:31.439Z,98404.47
2022-12-08T03:44:58.034Z,98400.84
2022-12-08T03:47:24.613Z,98401.09
2022-12-08T03:49:51.153Z,98403.03
2022-12-08T03:52:17.731Z,98393.28
2022-12-08T03:54:44.293Z,98385.78
2022-12-08T03:57:10.844Z,98394.13
2022-12-08T03:59:37.620Z,98385.22
2022-12-08T04:02:04.317Z,98375.44
2022-12-08T04:04:31.173Z,98380.75
2022-12-08T04:06:57.752Z,98382.56
2022-12-08T04:09:24.338Z,98377.09
2022-12-08T04:11:50.956Z,98376.50
2022-12-08T04:14:17.548Z,98376.78
2022-12-08T04:16:44.124Z,98378.59
2022-12-08T04:19:10.685Z,98377.13
2022-12-08T04:21:37.254Z,98381.94
2022-12-08T04:24:03.910Z,98373.72
2022-12-08T04:26:30.482Z,98374.22
2022-12-08T04:28:57.057Z,98368.09
2022-12-08T04:31:23.730Z,98365.63
2022-12-08T04:33:50.337Z,98364.47
2022-12-08T04:36:16.892Z,98369.16
2022-12-08T04:38:43.544Z,98366.97
2022-12-08T04:41:10.307Z,98369.16
2022-12-08T04:43:37.163Z,98370.75
2022-12-08T04:46:07.150Z,98376.88
2022-12-08T04:48:34.235Z,98370.50
2022-12-08T04:51:00.821Z,98361.56
2022-12-08T04:53:27.416Z,98361.19
2022-12-08T04:55:54.128Z,98363.13
2022-12-08T04:58:20.948Z,98359.84
2022-12-08T05:00:48.212Z,98357.34
2022-12-08T05:03:15.602Z,98363.13
2022-12-08T05:05:43.452Z,98362.50
2022-12-08T05:08:10.845Z,98365.88
2022-12-08T05:10:37.521Z,98368.31
2022-12-08T05:13:04.208Z,98362.56
2022-12-08T05:15:30.910Z,98359.56
2022-12-08T05:17:57.534Z,98347.00
2022-12-08T05:20:24.095Z,98355.59
2022-12-08T05:22:50.695Z,98353.50
2022-12-08T05:25:17.422Z,98350.28
2022-12-08T05:27:44.086Z,98343.03
2022-12-08T05:30:11.054Z,98346.88
2022-12-08T05:32:37.592Z,98338.72
2022-12-08T05:35:04.312Z,98337.25
2022-12-08T05:37:30.876Z,98339.53
2022-12-08T05:39:57.492Z,98342.53
2022-12-08T05:42:25.071Z,98342.19
2022-12-08T05:44:52.638Z,98334.38
2022-12-08T05:47:19.353Z,98331.25
2022-12-08T05:49:46.009Z,98330.28
2022-12-08T05:52:12.624Z,98336.66
2022-12-08T05:54:39.187Z,98334.94
2022-12-08T05:57:05.740Z,98341.72
2022-12-08T05:59:32.363Z,98336.28
2022-12-08T06:01:59.126Z,98340.25
2022-12-08T06:04:25.846Z,98331.38
2022-12-08T06:06:52.456Z,98331.84
2022-12-08T06:09:19.026Z,98336.75
2022-12-08T06:11:47.077Z,98337.03
2022-12-08T06:14:13.877Z,98347.63
2022-12-08T06:16:40.599Z,98339.19
2022-12-08T06:19:07.665Z,98344.63
2022-12-08T06:21:34.221Z,98346.78
2022-12-08T06:24:00.802Z,98343.88
2022-12-08T06:26:27.399Z,98350.88
2022-12-08T06:28:54.205Z,98350.13
2022-12-08T06:31:23.814Z,98352.16
2022-12-08T06:33:50.734Z,98353.03
2022-12-08T06:36:19.832Z,98350.16
2022-12-08T06:38:46.919Z,98351.47
2022-12-08T06:41:13.922Z,98357.63
2022-12-08T06:43:41.453Z,98349.66
2022-12-08T06:46:10.507Z,98350.50
2022-12-08T06:48:37.174Z,98353.66
2022-12-08T06:51:08.923Z,98353.91
2022-12-08T06:53:35.689Z,98361.59
2022-12-08T06:56:02.469Z,98355.78
2022-12-08T06:58:29.425Z,98345.69
2022-12-08T07:00:56.130Z,98345.09
2022-12-08T07:03:22.760Z,98349.16
2022-12-08T07:05:49.354Z,98352.16
2022-12-08T07:08:16.086Z,98359.44
2022-12-08T07:10:42.831Z,98355.56
2022-12-08T07:13:09.471Z,98356.91
2022-12-08T07:15:35.993Z,98357.63
2022-12-08T07:18:02.566Z,98358.34
2022-12-08T07:20:29.256Z,98360.25
2022-12-08T07:22:56.179Z,98361.94
2022-12-08T07:25:22.754Z,98364.84
2022-12-08T07:27:51.423Z,98362.78
2022-12-08T07:30:18.166Z,98364.72
2022-12-08T07:32:45.114Z,98372.81
2022-12-08T07:35:12.137Z,98371.84
2022-12-08T07:37:39.105Z,98366.78
2022-12-08T07:40:08.510Z,98366.41
2022-12-08T07:42:35.756Z,98365.34
2022-12-08T07:45:02.586Z,98362.22
2022-12-08T07:47:29.262Z,98357.97
2022-12-08T07:49:55.839Z,98357.50
2022-12-08T07:52:23.249Z,98357.97
2022-12-08T07:54:49.864Z,98351.25
2022-12-08T07:57:16.450Z,98361.00
2022-12-08T07:59:43.219Z,98359.44
2022-12-08T08:02:26.017Z,98361.38
2022-12-08T08:04:53.680Z,98365.44
2022-12-08T08:07:20.629Z,98359.06
2022-12-08T08:09:47.178Z,98367.38
2022-12-08T08:15:01.372Z,98371.72
2022-12-08T08:17:28.938Z,98370.28
2022-12-08T08:19:55.817Z,98365.91
2022-12-08T08:22:22.389Z,98368.97
2022-12-08T08:24:48.971Z,98371.72
2022-12-08T08:27:15.625Z,98362.91
2022-12-08T08:29:42.166Z,98366.06
2022-12-08T08:32:08.985Z,98364.72
2022-12-08T08:34:35.642Z,98363.63
2022-12-08T08:37:02.428Z,98360.00
2022-12-08T08:39:30.204Z,98359.66
2022-12-08T08:41:56.790Z,98357.09
2022-12-08T08:44:23.651Z,98359.28
2022-12-08T08:46:50.263Z,98355.41
2022-12-08T08:49:17.019Z,98361.44
2022-12-08T08:51:43.826Z,98355.63
2022-12-08T08:54:10.685Z,98362.75
2022-12-08T08:56:37.314Z,98361.44
2022-12-08T08:59:04.285Z,98365.44
2022-12-08T09:01:31.041Z,98369.13
2022-12-08T09:03:58.208Z,98364.63
2022-12-08T09:06:25.652Z,98366.19
2022-12-08T09:08:52.285Z,98359.75
2022-12-08T09:11:19.032Z,98368.59
2022-12-08T09:13:49.494Z,98375.03
2022-12-08T09:16:17.218Z,98361.41
2022-12-08T09:18:44.249Z,98365.25
2022-12-08T09:21:16.518Z,98357.88
2022-12-08T09:23:43.637Z,98355.63
2022-12-08T09:26:10.443Z,98362.72
2022-12-08T09:28:37.829Z,98359.81
2022-12-08T09:31:04.777Z,98359.88
2022-12-08T09:33:31.687Z,98352.66
2022-12-08T09:36:03.612Z,98353.22
2022-12-08T09:38:30.445Z,98355.63
2022-12-08T09:40:58.208Z,98349.72
2022-12-08T09:44:13.208Z,98343.13
2022-12-08T09:46:40.284Z,98343.28
2022-12-08T09:49:14.094Z,98337.09
2022-12-08T09:51:43.932Z,98331.91
2022-12-08T09:54:12.074Z,98320.06
2022-12-08T09:56:39.712Z,98323.06
2022-12-08T09:59:28.713Z,98315.25
2022-12-08T10:01:55.602Z,98314.72
2022-12-08T10:04:26.701Z,98303.88
2022-12-08T10:07:17.948Z,98306.34
2022-12-08T10:10:11.975Z,98307.41
2022-12-08T10:13:00.200Z,98301.41
2022-12-08T10:15:39.299Z,98304.56
2022-12-08T10:18:16.831Z,98293.63
2022-12-08T10:20:47.442Z,98308.72
2022-12-08T10:23:14.236Z,98303.47
2022-12-08T10:26:13.249Z,98299.41
2022-12-08T10:28:44.882Z,98313.00
2022-12-08T10:31:31.049Z,98302.22
2022-12-08T10:34:00.560Z,98301.78
2022-12-08T10:36:47.264Z,98301.63
2022-12-08T10:39:35.004Z,98292.78
2022-12-08T10:42:09.785Z,98296.84
2022-12-08T10:44:50.111Z,98302.16
2022-12-08T10:47:22.042Z,98296.00
2022-12-08T10:50:19.310Z,98295.03
2022-12-08T10:52:55.902Z,98289.69
2022-12-08T10:55:23.586Z,98295.34
2022-12-08T10:57:51.620Z,98279.22
2022-12-08T11:00:21.910Z,98272.06
2022-12-08T11:02:57.955Z,98271.38
2022-12-08T11:05:29.080Z,98272.75
2022-12-08T11:07:56.645Z,98264.03
2022-12-08T11:10:37.007Z,98255.91
2022-12-08T11:13:13.313Z,98253.75
2022-12-08T11:15:40.066Z,98252.97
2022-12-08T11:18:09.583Z,98251.44
2022-12-08T11:20:41.677Z,98250.53
2022-12-08T11:23:28.569Z,98256.97
2022-12-08T11:26:01.523Z,98258.41
2022-12-08T11:28:28.637Z,98258.38
2022-12-08T11:31:01.459Z,98245.56
2022-12-08T11:33:29.205Z,98243.53
2022-12-08T11:36:02.343Z,98245.69
2022-12-08T11:38:29.880Z,98246.94
2022-12-08T11:41:16.900Z,98238.50
2022-12-08T11:43:51.458Z,98236.09
2022-12-08T11:46:23.506Z,98236.84
2022-12-08T11:49:04.181Z,98241.88
2022-12-08T11:51:37.266Z,98239.38
2022-12-08T11:54:28.324Z,98247.78
2022-12-08T11:56:57.296Z,98241.75
2022-12-08T11:59:31.578Z,98243.84
2022-12-08T12:02:00.837Z,98234.44
2022-12-08T12:04:44.665Z,98241.19
2022-12-08T12:07:39.132Z,98231.09
2022-12-08T12:10:27.871Z,98232.22
2022-12-08T12:13:19.199Z,98232.06
2022-12-08T12:16:23.398Z,98233.78
2022-12-08T12:18:53.776Z,98232.53
2022-12-08T12:21:26.024Z,98233.50
2022-12-08T12:23:57.764Z,98229.19
2022-12-08T12:26:37.100Z,98220.47
2022-12-08T12:29:03.656Z,98223.28
2022-12-08T12:31:41.515Z,98219.22
2022-12-08T12:34:20.251Z,98221.59
2022-12-08T12:37:18.646Z,98219.94
2022-12-08T12:39:50.053Z,98214.03
2022-12-08T12:42:37.106Z,98213.03
2022-12-08T12:45:34.309Z,98208.31
2022-12-08T12:48:00.802Z,98203.69
2022-12-08T12:50:45.486Z,98206.81
2022-12-08T12:53:18.906Z,98205.47
2022-12-08T12:55:45.419Z,98198.84
2022-12-08T12:58:30.093Z,98202.91
2022-12-08T13:01:12.534Z,98201.81
2022-12-08T13:03:44.521Z,98196.66
2022-12-08T13:06:14.933Z,98195.66
2022-12-08T13:08:55.006Z,98194.28
2022-12-08T13:11:23.313Z,98191.75
2022-12-08T13:13:56.828Z,98185.16
2022-12-08T13:16:28.163Z,98187.81
2022-12-08T13:19:02.448Z,98192.31
2022-12-08T13:21:38.136Z,98186.41
2022-12-08T13:24:12.726Z,98185.16
2022-12-08T13:27:04.257Z,98183.91
2022-12-08T13:29:35.560Z,98175.91
2022-12-08T13:32:08.526Z,98178.00
2022-12-08T13:34:57.837Z,98184.31
2022-12-08T13:37:54.615Z,98190.63
2022-12-08T13:40:25.665Z,98188.97
2022-12-08T13:43:10.916Z,98192.16
2022-12-08T13:46:52.255Z,98189.63
2022-12-08T13:57:34.728Z,98184.28
2022-12-08T14:00:17.696Z,98180.22
2022-12-08T14:02:49.918Z,98180.81
2022-12-08T14:05:34.865Z,98192.72
2022-12-08T14:09:05.045Z,98188.41
2022-12-08T14:11:37.587Z,98182.66
2022-12-08T14:14:27.301Z,98183.06
2022-12-08T14:17:04.778Z,98185.16
2022-12-08T14:19:33.664Z,98187.28
2022-12-08T14:22:14.488Z,98195.13
2022-12-08T14:24:45.112Z,98193.19
2022-12-08T14:27:16.483Z,98186.19
2022-12-08T14:29:47.400Z,98190.94
2022-12-08T14:32:26.802Z,98188.97
2022-12-08T14:34:59.880Z,98190.94
2022-12-08T14:37:31.044Z,98186.03
2022-12-08T14:40:01.970Z,98186.88
2022-12-08T14:42:29.840Z,98184.50
2022-12-08T14:45:00.171Z,98192.44
2022-12-08T14:47:31.737Z,98187.00
2022-12-08T14:49:58.385Z,98186.69
2022-12-08T14:52:25.596Z,98192.44
2022-12-08T14:54:53.313Z,98189.75
2022-12-08T14:57:20.356Z,98200.28
2022-12-08T14:59:48.580Z,98199.41
2022-12-08T15:02:27.369Z,98199.56
2022-12-08T15:05:11.761Z,98192.56
2022-12-08T15:07:50.436Z,98196.03
2022-12-08T15:10:17.044Z,98202.47
2022-12-08T15:13:19.564Z,98202.31
2022-12-08T15:15:52.727Z,98207.44
2022-12-08T15:18:39.188Z,98209.59
2022-12-08T15:21:09.115Z,98214.38
2022-12-08T15:23:47.394Z,98204.28
2022-12-08T15:26:26.074Z,98204.53
2022-12-08T15:28:54.042Z,98206.25
2022-12-08T15:31:21.754Z,98210.94
2022-12-08T15:33:48.468Z,98211.38
2022-12-08T15:36:15.046Z,98215.81
2022-12-08T15:38:42.994Z,98217.13
2022-12-08T15:41:14.664Z,98214.44
2022-12-08T15:43:41.904Z,98216.88
2022-12-08T15:46:08.561Z,98215.94
2022-12-08T15:48:37.584Z,98213.94
2022-12-08T15:51:04.194Z,98229.22
2022-12-08T15:53:30.707Z,98209.06
2022-12-08T15:56:26.393Z,98218.00
2022-12-08T15:58:53.703Z,98217.16
2022-12-08T16:01:21.810Z,98212.22
2022-12-08T16:09:32.982Z,98206.53
2022-12-08T16:12:18.621Z,98209.94
2022-12-08T16:17:32.674Z,98206.84
2022-12-08T16:20:00.139Z,98208.72
2022-12-08T16:22:56.762Z,98213.00
2022-12-08T16:25:21.339Z,98217.81
2022-12-08T16:28:03.024Z,98213.13
2022-12-08T16:30:34.329Z,98216.78
2022-12-08T16:33:01.985Z,98219.53
2022-12-08T16:35:31.378Z,98218.28
2022-12-08T16:38:00.132Z,98216.22
2022-12-08T16:40:27.777Z,98218.66
2022-12-08T16:42:55.108Z,98219.44
2022-12-08T16:45:25.850Z,98213.84
2022-12-08T16:47:57.595Z,98222.38
2022-12-08T16:50:32.742Z,98215.44
2022-12-08T16:53:03.401Z,98219.31
2022-12-08T16:55:33.092Z,98221.72
2022-12-08T16:58:00.691Z,98204.78
2022-12-08T17:00:29.812Z,98209.31
2022-12-08T17:02:58.702Z,98208.13
2022-12-08T17:05:26.752Z,98213.19
2022-12-08T17:07:53.964Z,98210.09
2022-12-08T17:10:27.149Z,98220.06
2022-12-08T17:12:54.570Z,98208.03
2022-12-08T17:15:23.764Z,98206.63
2022-12-08T17:17:50.567Z,98215.19
2022-12-08T17:20:20.124Z,98208.00
2022-12-08T17:22:47.593Z,98213.06
2022-12-08T17:25:14.539Z,98211.69
2022-12-08T17:27:43.105Z,98210.66
2022-12-08T17:30:16.035Z,98217.13
2022-12-08T17:32:44.615Z,98219.22
2022-12-08T17:35:13.712Z,98222.84
2022-12-08T17:37:41.640Z,98220.19
2022-12-08T17:40:10.056Z,98224.94
2022-12-08T17:42:39.454Z,98214.69
2022-12-08T17:45:08.675Z,98216.56
2022-12-08T17:47:37.391Z,98227.88
2022-12-08T17:50:06.407Z,98222.41
2022-12-08T17:52:33.211Z,98219.59
2022-12-08T17:54:59.737Z,98225.38
2022-12-08T17:57:26.349Z,98218.81
2022-12-08T17:59:52.934Z,98212.91
2022-12-08T18:02:19.550Z,98215.53
2022-12-08T18:04:46.101Z,98207.69
2022-12-08T18:07:12.698Z,98210.78
2022-12-08T18:09:39.369Z,98211.72
2022-12-08T18:12:06.202Z,98218.47
2022-12-08T18:14:32.780Z,98214.28
2022-12-08T18:16:59.486Z,98210.34
2022-12-08T18:19:26.327Z,98220.84
2022-12-08T18:21:53.026Z,98214.25
2022-12-08T18:24:23.144Z,98212.47
2022-12-08T18:26:52.090Z,98212.03
2022-12-08T18:29:19.623Z,98207.69
2022-12-08T18:31:46.214Z,98219.91
2022-12-08T18:34:12.871Z,98215.66
2022-12-08T18:36:39.469Z,98212.56
2022-12-08T18:39:10.692Z,98207.00
2022-12-08T18:41:37.662Z,98209.91
2022-12-08T18:44:04.457Z,98214.22
2022-12-08T18:46:31.128Z,98207.41
2022-12-08T18:48:58.136Z,98210.44
2022-12-08T18:51:24.724Z,98205.28
2022-12-08T18:53:52.395Z,98204.00
2022-12-08T18:56:22.137Z,98209.47
2022-12-08T18:58:48.779Z,98206.94
2022-12-08T19:01:16.077Z,98205.84
2022-12-08T19:03:52.777Z,98208.19
2022-12-08T19:06:25.167Z,98210.84
2022-12-08T19:08:52.361Z,98222.91
2022-12-08T19:11:22.444Z,98217.03
2022-12-08T19:13:49.681Z,98214.09
2022-12-08T19:16:16.751Z,98223.06
2022-12-08T19:18:43.459Z,98220.84
2022-12-08T19:21:12.283Z,98225.16
2022-12-08T19:23:40.564Z,98222.09
2022-12-08T19:26:08.296Z,98219.13
2022-12-08T19:28:35.283Z,98214.97
2022-12-08T19:31:09.243Z,98214.34
2022-12-08T19:33:36.981Z,98212.06
2022-12-08T19:36:09.379Z,98216.59
2022-12-08T19:38:56.205Z,98218.38
2022-12-08T19:41:42.315Z,98227.31
2022-12-08T19:44:47.900Z,98218.56
2022-12-08T19:47:14.798Z,98213.91
2022-12-08T19:49:41.473Z,98219.78
2022-12-08T19:52:08.260Z,98212.31
2022-12-08T19:54:35.204Z,98224.31
2022-12-08T19:57:02.584Z,98215.47
2022-12-08T19:59:30.241Z,98216.66
2022-12-08T20:01:58.441Z,98220.00
2022-12-08T20:04:26.292Z,98223.78
2022-12-08T20:06:54.485Z,98221.81
2022-12-08T20:09:22.342Z,98227.88
2022-12-08T20:11:50.629Z,98232.31
2022-12-08T20:14:18.433Z,98231.81
2022-12-08T20:16:45.139Z,98228.28
2022-12-08T20:19:11.728Z,98229.25
2022-12-08T20:21:39.474Z,98222.00
2022-12-08T20:24:06.625Z,98229.69
2022-12-08T20:26:33.221Z,98238.91
2022-12-08T20:28:59.866Z,98238.06
2022-12-08T20:31:28.993Z,98240.81
2022-12-08T20:33:55.685Z,98243.63
2022-12-08T20:36:22.972Z,98238.78
2022-12-08T20:38:51.614Z,98252.13
2022-12-08T20:41:18.976Z,98251.38
2022-12-08T20:43:47.075Z,98253.00
2022-12-08T20:46:17.232Z,98263.81
2022-12-08T20:48:44.724Z,98259.03
2022-12-08T20:51:18.519Z,98268.59
2022-12-08T20:53:45.324Z,98264.41
2022-12-08T20:56:18.574Z,98267.09
2022-12-08T20:58:46.101Z,98264.97
2022-12-08T21:01:16.553Z,98266.47
2022-12-08T21:03:44.378Z,98278.56
2022-12-08T21:06:12.442Z,98274.16
2022-12-08T21:08:40.064Z,98273.66
2022-12-08T21:11:08.903Z,98273.88
2022-12-08T21:13:39.381Z,98269.56
2022-12-08T21:16:09.148Z,98275.09
2022-12-08T21:18:39.608Z,98276.16
2022-12-08T21:21:17.797Z,98281.31
2022-12-08T21:23:45.026Z,98281.00
2022-12-08T21:26:14.091Z,98273.88
2022-12-08T21:28:41.593Z,98275.09
2022-12-08T21:31:11.767Z,98276.22
2022-12-08T21:33:39.229Z,98278.16
2022-12-08T21:36:12.060Z,98271.03
2022-12-08T21:38:40.880Z,98280.09
2022-12-08T21:41:10.395Z,98273.88
2022-12-08T21:43:37.500Z,98283.44
2022-12-08T21:46:04.645Z,98286.13
2022-12-08T21:48:31.376Z,98285.19
2022-12-08T21:51:04.858Z,98289.63
2022-12-08T21:53:32.016Z,98281.28
2022-12-08T21:55:58.830Z,98285.09
2022-12-08T21:58:26.396Z,98283.47
2022-12-08T22:00:53.521Z,98286.69
2022-12-08T22:03:20.278Z,98279.00
2022-12-08T22:05:47.024Z,98281.56
2022-12-08T22:08:13.783Z,98276.28
2022-12-08T22:10:40.672Z,98279.19
2022-12-08T22:13:07.332Z,98275.66
2022-12-08T22:15:34.203Z,98270.75
2022-12-08T22:18:01.069Z,98273.31
2022-12-08T22:20:27.833Z,98280.53
2022-12-08T22:22:54.551Z,98271.03
2022-12-08T22:25:21.454Z,98273.66
2022-12-08T22:27:48.009Z,98284.44
2022-12-08T22:30:14.965Z,98275.50
2022-12-08T22:32:42.057Z,98273.94
2022-12-08T22:35:09.640Z,98283.25
2022-12-08T22:37:36.391Z,98278.25
2022-12-08T22:40:03.662Z,98276.66
2022-12-08T22:42:30.713Z,98280.09
2022-12-08T22:44:57.387Z,98277.78
2022-12-08T22:47:24.036Z,98276.25
2022-12-08T22:49:50.686Z,98275.00
2022-12-08T22:52:17.277Z,98279.13
2022-12-08T22:54:43.924Z,98280.63
2022-12-08T22:57:10.701Z,98281.31
2022-12-08T22:59:40.562Z,98287.00
2022-12-08T23:02:08.133Z,98277.31
2022-12-08T23:04:35.614Z,98283.94
2022-12-08T23:07:03.081Z,98285.25
2022-12-08T23:09:29.861Z,98285.88
2022-12-08T23:11:56.774Z,98285.38
2022-12-08T23:14:23.463Z,98289.84
2022-12-08T23:16:50.426Z,98285.47
2022-12-08T23:19:17.077Z,98286.69
2022-12-08T23:21:44.171Z,98281.94
2022-12-08T23:24:10.828Z,98278.63
2022-12-08T23:26:37.671Z,98281.31
2022-12-08T23:29:04.950Z,98283.97
2022-12-08T23:31:31.915Z,98291.66
2022-12-08T23:33:58.738Z,98281.31
2022-12-08T23:36:26.483Z,98281.94
2022-12-08T23:38:54.415Z,98284.59
2022-12-08T23:41:21.591Z,98280.72
2022-12-08T23:43:50.772Z,98282.69
2022-12-08T23:46:20.692Z,98280.03
2022-12-08T23:48:48.279Z,98286.25
2022-12-08T23:51:15.500Z,98282.16
2022-12-08T23:53:42.708Z,98279.19
2022-12-08T23:56:12.207Z,98285.91
2022-12-08T23:58:40.106Z,98279.25
